createdAt,value
2022-10-14T00:02:41.429Z,8.63
2022-10-14T00:05:10.400Z,8.59
2022-10-14T00:07:39.810Z,8.60
2022-10-14T00:10:08.898Z,8.64
2022-10-14T00:12:37.688Z,8.64
2022-10-14T00:15:07.436Z,8.61
2022-10-14T00:17:36.877Z,8.58
2022-10-14T00:20:06.410Z,8.58
2022-10-14T00:22:35.441Z,8.59
2022-10-14T00:25:04.591Z,8.57
2022-10-14T00:27:34.140Z,8.56
2022-10-14T00:30:04.326Z,8.54
2022-10-14T00:32:33.264Z,8.53
2022-10-14T00:35:01.937Z,8.54
2022-10-14T00:37:32.175Z,8.56
2022-10-14T00:40:00.906Z,8.59
2022-10-14T00:42:34.213Z,8.59
2022-10-14T00:45:14.525Z,8.60
2022-10-14T00:47:44.935Z,8.61
2022-10-14T00:50:16.180Z,8.61
2022-10-14T00:52:46.887Z,8.61
2022-10-14T00:55:22.053Z,8.59
2022-10-14T00:57:51.232Z,8.57
2022-10-14T01:00:25.422Z,8.54
2022-10-14T01:02:57.122Z,8.51
2022-10-14T01:05:36.565Z,8.47
2022-10-14T01:08:27.191Z,8.43
2022-10-14T01:11:21.420Z,8.41
2022-10-14T01:14:09.220Z,8.39
2022-10-14T01:17:00.109Z,8.36
2022-10-14T01:20:16.427Z,8.33
2022-10-14T01:23:16.481Z,8.22
2022-10-14T01:26:42.636Z,8.20
2022-10-14T01:29:39.398Z,8.20
2022-10-14T01:32:20.307Z,8.24
2022-10-14T01:35:21.231Z,8.27
2022-10-14T01:38:20.028Z,8.30
2022-10-14T01:41:05.280Z,8.31
2022-10-14T01:43:35.823Z,8.32
2022-10-14T01:46:08.306Z,8.35
2022-10-14T01:48:41.603Z,8.40
2022-10-14T01:51:18.890Z,8.45
2022-10-14T01:53:57.376Z,8.44
2022-10-14T01:56:30.578Z,8.42
2022-10-14T01:59:01.950Z,8.43
2022-10-14T02:01:35.052Z,8.49
2022-10-14T02:04:14.682Z,8.55
2022-10-14T02:06:52.181Z,8.57
2022-10-14T02:10:00.511Z,8.60
2022-10-14T02:13:16.709Z,8.62
2022-10-14T02:15:51.374Z,8.61
2022-10-14T02:18:37.542Z,8.65
2022-10-14T02:21:29.013Z,8.67
2022-10-14T02:24:05.807Z,8.68
2022-10-14T02:26:36.999Z,8.66
2022-10-14T02:29:06.872Z,8.65
2022-10-14T02:31:40.196Z,8.63
2022-10-14T02:34:13.076Z,8.57
2022-10-14T02:36:43.993Z,8.49
2022-10-14T02:39:19.761Z,8.43
2022-10-14T02:41:48.640Z,8.40
2022-10-14T02:44:17.390Z,8.40
2022-10-14T02:46:48.644Z,8.42
2022-10-14T02:49:18.297Z,8.42
2022-10-14T02:51:47.535Z,8.41
2022-10-14T02:54:16.347Z,8.44
2022-10-14T02:56:45.064Z,8.50
2022-10-14T02:59:13.791Z,8.52
2022-10-14T03:01:42.625Z,8.51
2022-10-14T03:04:11.671Z,8.48
2022-10-14T03:06:41.210Z,8.44
2022-10-14T03:09:10.065Z,8.42
2022-10-14T03:11:40.798Z,8.45
2022-10-14T03:14:12.558Z,8.50
2022-10-14T03:16:41.250Z,8.56
2022-10-14T03:19:10.619Z,8.60
2022-10-14T03:21:43.945Z,8.63
2022-10-14T03:24:17.708Z,8.63
2022-10-14T03:26:47.088Z,8.63
2022-10-14T03:29:17.237Z,8.61
2022-10-14T03:32:15.063Z,8.60
2022-10-14T03:35:02.201Z,8.58
2022-10-14T03:37:31.347Z,8.58
2022-10-14T03:40:00.619Z,8.59
2022-10-14T03:42:35.536Z,8.60
2022-10-14T03:45:04.887Z,8.56
2022-10-14T03:47:34.612Z,8.52
2022-10-14T03:50:05.220Z,8.48
2022-10-14T03:52:44.833Z,8.45
2022-10-14T03:55:21.998Z,8.47
2022-10-14T03:57:52.003Z,8.51
2022-10-14T04:00:21.415Z,8.52
2022-10-14T04:02:52.408Z,8.54
2022-10-14T04:05:47.360Z,8.55
2022-10-14T04:08:24.702Z,8.57
2022-10-14T04:10:58.841Z,8.58
2022-10-14T04:13:29.847Z,8.59
2022-10-14T04:16:05.049Z,8.61
2022-10-14T04:18:40.988Z,8.60
2022-10-14T04:21:12.926Z,8.52
2022-10-14T04:23:43.736Z,8.49
2022-10-14T04:26:17.543Z,8.50
2022-10-14T04:28:47.539Z,8.47
2022-10-14T04:31:27.016Z,8.41
2022-10-14T04:34:00.435Z,8.42
2022-10-14T04:36:32.986Z,8.42
2022-10-14T04:39:02.876Z,8.39
2022-10-14T04:41:31.757Z,8.35
2022-10-14T04:44:02.545Z,8.38
2022-10-14T04:46:35.695Z,8.40
2022-10-14T04:49:06.925Z,8.41
2022-10-14T04:51:40.141Z,8.37
2022-10-14T04:54:19.058Z,8.37
2022-10-14T04:57:05.996Z,8.37
2022-10-14T04:59:36.037Z,8.38
2022-10-14T05:02:33.910Z,8.38
2022-10-14T05:05:03.590Z,8.38
2022-10-14T05:07:35.130Z,8.38
2022-10-14T05:10:17.730Z,8.36
2022-10-14T05:12:48.714Z,8.35
2022-10-14T05:15:17.919Z,8.36
2022-10-14T05:18:13.029Z,8.35
2022-10-14T05:20:59.753Z,8.34
2022-10-14T05:23:34.976Z,8.34
2022-10-14T05:26:04.507Z,8.33
2022-10-14T05:28:33.540Z,8.32
2022-10-14T05:31:02.250Z,8.31
2022-10-14T05:33:33.143Z,8.31
2022-10-14T05:36:02.450Z,8.32
2022-10-14T05:38:34.411Z,8.33
2022-10-14T05:41:04.440Z,8.33
2022-10-14T05:43:34.305Z,8.34
2022-10-14T05:46:07.284Z,8.37
2022-10-14T05:48:39.729Z,8.41
2022-10-14T05:51:08.640Z,8.45
2022-10-14T05:53:40.129Z,8.48
2022-10-14T05:56:13.918Z,8.50
2022-10-14T05:58:42.846Z,8.50
2022-10-14T06:01:12.598Z,8.54
2022-10-14T06:03:43.450Z,8.62
2022-10-14T06:06:16.868Z,8.69
2022-10-14T06:08:46.187Z,8.78
2022-10-14T06:11:14.989Z,8.86
2022-10-14T06:13:44.231Z,8.92
2022-10-14T06:16:13.316Z,9.00
2022-10-14T06:18:42.147Z,9.09
2022-10-14T06:21:12.768Z,9.19
2022-10-14T06:23:41.661Z,9.32
2022-10-14T06:26:10.608Z,9.42
2022-10-14T06:28:39.896Z,9.51
2022-10-14T06:31:08.687Z,9.65
2022-10-14T06:33:37.529Z,9.80
2022-10-14T06:36:07.288Z,9.91
2022-10-14T06:38:36.111Z,9.98
2022-10-14T06:41:05.103Z,10.05
2022-10-14T06:43:35.483Z,10.16
2022-10-14T06:46:05.726Z,10.29
2022-10-14T06:48:34.542Z,10.42
2022-10-14T06:51:03.504Z,10.52
2022-10-14T06:53:32.342Z,10.59
2022-10-14T06:56:05.368Z,10.65
2022-10-14T06:58:34.311Z,10.69
2022-10-14T07:01:05.800Z,10.75
2022-10-14T07:03:39.465Z,10.80
2022-10-14T07:06:09.253Z,10.88
2022-10-14T07:08:38.094Z,11.01
2022-10-14T07:11:07.245Z,11.14
2022-10-14T07:13:36.053Z,11.25
2022-10-14T07:16:05.089Z,11.36
2022-10-14T07:18:33.933Z,11.52
2022-10-14T07:21:06.833Z,11.67
2022-10-14T07:23:35.680Z,11.78
2022-10-14T07:26:04.822Z,11.90
2022-10-14T07:28:34.441Z,12.03
2022-10-14T07:31:10.150Z,12.18
2022-10-14T07:33:40.944Z,12.30
2022-10-14T07:36:18.467Z,12.35
2022-10-14T07:38:51.064Z,12.37
2022-10-14T07:41:23.949Z,12.46
2022-10-14T07:43:57.567Z,12.62
2022-10-14T07:46:33.216Z,12.77
2022-10-14T07:49:11.576Z,12.89
2022-10-14T07:51:41.741Z,12.98
2022-10-14T07:54:24.764Z,13.05
2022-10-14T07:56:53.648Z,13.12
2022-10-14T07:59:22.332Z,13.20
2022-10-14T08:01:52.898Z,13.26
2022-10-14T08:04:22.165Z,13.33
2022-10-14T08:06:51.817Z,13.42
2022-10-14T08:09:21.223Z,13.50
2022-10-14T08:11:50.022Z,13.59
2022-10-14T08:14:18.818Z,13.70
2022-10-14T08:16:47.885Z,13.84
2022-10-14T08:19:16.706Z,14.00
2022-10-14T08:21:45.647Z,14.15
2022-10-14T08:24:14.754Z,14.32
2022-10-14T08:26:57.039Z,14.38
2022-10-14T08:29:27.099Z,14.47
2022-10-14T08:31:55.880Z,14.62
2022-10-14T08:34:24.833Z,14.72
2022-10-14T08:36:53.715Z,14.82
2022-10-14T08:39:22.642Z,14.95
2022-10-14T08:42:20.941Z,15.10
2022-10-14T08:44:58.031Z,15.23
2022-10-14T08:47:37.861Z,15.38
2022-10-14T08:50:27.115Z,15.46
2022-10-14T08:53:33.441Z,15.53
2022-10-14T08:56:03.494Z,15.62
2022-10-14T08:58:47.407Z,15.63
2022-10-14T09:01:44.694Z,15.66
2022-10-14T09:04:16.131Z,15.69
2022-10-14T09:06:49.118Z,15.78
2022-10-14T09:09:42.208Z,15.94
2022-10-14T09:12:20.929Z,16.03
2022-10-14T09:15:12.270Z,16.08
2022-10-14T09:17:59.282Z,16.20
2022-10-14T09:20:28.415Z,16.29
2022-10-14T09:23:25.476Z,16.36
2022-10-14T09:26:05.830Z,16.45
2022-10-14T09:28:44.569Z,16.54
2022-10-14T09:31:14.577Z,16.61
2022-10-14T09:33:45.285Z,16.72
2022-10-14T09:36:19.636Z,16.85
2022-10-14T09:38:53.699Z,16.90
2022-10-14T09:41:31.093Z,16.87
2022-10-14T09:44:25.574Z,16.87
2022-10-14T09:47:02.844Z,16.89
2022-10-14T09:49:39.220Z,17.00
2022-10-14T09:52:23.151Z,17.11
2022-10-14T09:55:01.517Z,17.24
2022-10-14T09:57:31.251Z,17.33
2022-10-14T10:00:05.062Z,17.37
2022-10-14T10:02:45.244Z,17.36
2022-10-14T10:05:32.731Z,17.36
2022-10-14T10:08:18.796Z,17.32
2022-10-14T10:11:06.862Z,17.29
2022-10-14T10:13:45.467Z,17.34
2022-10-14T10:16:34.804Z,17.39
2022-10-14T10:19:33.628Z,17.43
2022-10-14T10:22:21.978Z,17.47
2022-10-14T10:24:59.332Z,17.54
2022-10-14T10:27:35.536Z,17.57
2022-10-14T10:30:48.819Z,17.59
2022-10-14T10:33:36.753Z,17.54
2022-10-14T10:36:34.166Z,17.54
2022-10-14T10:39:38.635Z,17.59
2022-10-14T10:42:28.784Z,17.64
2022-10-14T10:45:19.543Z,17.67
2022-10-14T10:48:01.235Z,17.70
2022-10-14T10:50:48.039Z,17.86
2022-10-14T10:54:09.427Z,18.19
2022-10-14T10:57:02.175Z,18.53
2022-10-14T11:00:01.764Z,18.58
2022-10-14T11:02:57.676Z,18.51
2022-10-14T11:06:35.588Z,18.60
2022-10-14T11:09:30.652Z,18.56
2022-10-14T11:12:42.649Z,18.54
2022-10-14T11:16:15.162Z,18.49
2022-10-14T11:19:14.760Z,18.46
2022-10-14T11:21:56.565Z,18.46
2022-10-14T11:24:39.890Z,18.54
2022-10-14T11:27:23.902Z,18.53
2022-10-14T11:30:15.173Z,18.47
2022-10-14T11:32:52.604Z,18.48
2022-10-14T11:35:53.999Z,18.50
2022-10-14T11:38:30.786Z,18.39
2022-10-14T11:41:25.263Z,18.31
2022-10-14T11:44:32.173Z,18.18
2022-10-14T11:47:10.160Z,18.11
2022-10-14T11:49:53.987Z,18.11
2022-10-14T11:52:30.133Z,18.12
2022-10-14T11:55:18.046Z,18.15
2022-10-14T11:57:59.959Z,18.13
2022-10-14T12:00:34.049Z,18.16
2022-10-14T12:03:46.051Z,18.18
2022-10-14T12:06:47.613Z,18.10
2022-10-14T12:09:39.803Z,18.03
2022-10-14T12:12:19.683Z,17.98
2022-10-14T12:14:55.415Z,17.97
2022-10-14T12:17:50.004Z,17.97
2022-10-14T12:20:47.879Z,17.96
2022-10-14T12:23:40.001Z,17.96
2022-10-14T12:26:20.648Z,17.91
2022-10-14T12:28:52.784Z,17.90
2022-10-14T12:31:28.687Z,17.96
2022-10-14T12:34:31.381Z,18.00
2022-10-14T12:37:00.985Z,18.04
2022-10-14T12:39:35.151Z,18.15
2022-10-14T12:42:16.005Z,18.13
2022-10-14T12:44:56.221Z,18.14
2022-10-14T12:47:35.334Z,18.14
2022-10-14T12:50:25.789Z,18.15
2022-10-14T12:53:06.730Z,18.15
2022-10-14T12:55:48.899Z,18.14
2022-10-14T12:58:54.410Z,18.09
2022-10-14T13:01:23.800Z,18.02
2022-10-14T13:04:20.185Z,18.00
2022-10-14T13:07:42.955Z,17.98
2022-10-14T13:10:43.223Z,18.00
2022-10-14T13:13:45.055Z,17.99
2022-10-14T13:16:25.916Z,18.01
2022-10-14T13:18:58.592Z,18.04
2022-10-14T13:21:34.870Z,18.02
2022-10-14T13:24:38.627Z,17.97
2022-10-14T13:27:37.559Z,17.85
2022-10-14T13:30:34.167Z,17.80
2022-10-14T13:33:25.113Z,17.79
2022-10-14T13:36:11.928Z,17.81
2022-10-14T13:38:51.990Z,17.84
2022-10-14T13:41:30.584Z,17.88
2022-10-14T13:44:02.523Z,17.90
2022-10-14T13:46:43.611Z,17.88
2022-10-14T13:49:23.473Z,17.86
2022-10-14T13:52:17.867Z,17.86
2022-10-14T13:54:46.717Z,17.82
2022-10-14T13:57:43.060Z,17.81
2022-10-14T14:00:58.139Z,17.77
2022-10-14T14:03:36.167Z,17.69
2022-10-14T14:06:15.602Z,17.68
2022-10-14T14:09:04.701Z,17.67
2022-10-14T14:11:37.495Z,17.63
2022-10-14T14:14:21.220Z,17.62
2022-10-14T14:17:03.997Z,17.63
2022-10-14T14:19:37.975Z,17.65
2022-10-14T14:22:32.038Z,17.64
2022-10-14T14:25:35.679Z,17.63
2022-10-14T14:28:15.558Z,17.60
2022-10-14T14:30:55.775Z,17.61
2022-10-14T14:33:36.035Z,17.59
2022-10-14T14:36:18.171Z,17.54
2022-10-14T14:39:01.215Z,17.47
2022-10-14T14:41:32.302Z,17.44
2022-10-14T14:44:24.534Z,17.44
2022-10-14T14:47:02.018Z,17.40
2022-10-14T14:49:36.014Z,17.39
2022-10-14T14:52:06.412Z,17.38
2022-10-14T14:54:44.928Z,17.36
2022-10-14T14:57:20.358Z,17.33
2022-10-14T15:00:03.125Z,17.27
2022-10-14T15:02:35.091Z,17.24
2022-10-14T15:05:11.999Z,17.18
2022-10-14T15:07:43.919Z,17.12
2022-10-14T15:10:30.667Z,17.08
2022-10-14T15:13:02.791Z,17.05
2022-10-14T15:15:35.206Z,17.06
2022-10-14T15:18:26.308Z,17.08
2022-10-14T15:21:24.601Z,17.09
2022-10-14T15:24:06.354Z,17.09
2022-10-14T15:26:38.612Z,17.09
2022-10-14T15:32:29.173Z,17.06
2022-10-14T15:35:02.353Z,17.02
2022-10-14T15:37:31.542Z,17.00
2022-10-14T15:40:32.650Z,16.97
2022-10-14T15:43:10.963Z,16.90
2022-10-14T15:45:44.782Z,16.88
2022-10-14T15:48:19.726Z,16.85
2022-10-14T15:50:51.715Z,16.73
2022-10-14T15:53:20.594Z,16.69
2022-10-14T15:55:57.250Z,16.64
2022-10-14T15:58:36.774Z,16.59
2022-10-14T16:01:07.543Z,16.53
2022-10-14T16:03:46.350Z,16.48
2022-10-14T16:06:27.007Z,16.41
2022-10-14T16:09:01.502Z,16.37
2022-10-14T16:11:44.666Z,16.34
2022-10-14T16:14:17.764Z,16.33
2022-10-14T16:16:47.440Z,16.31
2022-10-14T16:19:18.086Z,16.29
2022-10-14T16:21:52.714Z,16.27
2022-10-14T16:24:27.957Z,16.24
2022-10-14T16:27:05.444Z,16.23
2022-10-14T16:29:46.422Z,16.24
2022-10-14T16:32:21.002Z,16.24
2022-10-14T16:34:51.598Z,16.25
2022-10-14T16:37:21.205Z,16.25
2022-10-14T16:39:53.943Z,16.25
2022-10-14T16:42:25.627Z,16.26
2022-10-14T16:44:58.206Z,16.24
2022-10-14T16:47:28.626Z,16.20
2022-10-14T16:50:27.201Z,16.15
2022-10-14T16:53:31.785Z,16.04
2022-10-14T16:56:04.427Z,15.95
2022-10-14T16:58:33.279Z,15.93
2022-10-14T17:01:09.267Z,15.92
2022-10-14T17:03:39.294Z,15.89
2022-10-14T17:06:08.558Z,15.86
2022-10-14T17:08:44.122Z,15.83
2022-10-14T17:11:16.381Z,15.80
2022-10-14T17:13:53.874Z,15.79
2022-10-14T17:16:27.471Z,15.76
2022-10-14T17:19:10.901Z,15.75
2022-10-14T17:21:53.249Z,15.72
2022-10-14T17:24:22.221Z,15.73
2022-10-14T17:26:51.374Z,15.72
2022-10-14T17:29:20.797Z,15.70
2022-10-14T17:31:52.112Z,15.66
2022-10-14T17:34:24.084Z,15.53
2022-10-14T17:36:56.155Z,15.49
2022-10-14T17:39:29.588Z,15.49
2022-10-14T17:41:58.779Z,15.47
2022-10-14T17:44:29.069Z,15.46
2022-10-14T17:47:01.613Z,15.44
2022-10-14T17:49:31.557Z,15.41
2022-10-14T17:52:08.261Z,15.41
2022-10-14T17:54:37.422Z,15.36
2022-10-14T17:57:06.568Z,15.43
2022-10-14T17:59:35.896Z,15.42
2022-10-14T18:02:12.515Z,15.40
2022-10-14T18:04:44.800Z,15.28
2022-10-14T18:07:23.476Z,15.26
2022-10-14T18:10:05.012Z,15.23
2022-10-14T18:12:37.329Z,15.23
2022-10-14T18:15:09.659Z,15.19
2022-10-14T18:17:41.966Z,15.14
2022-10-14T18:20:34.529Z,15.08
2022-10-14T18:23:04.081Z,15.01
2022-10-14T18:25:35.223Z,15.00
2022-10-14T18:28:07.964Z,14.97
2022-10-14T18:30:38.394Z,14.93
2022-10-14T18:33:07.582Z,14.88
2022-10-14T18:35:45.111Z,14.83
2022-10-14T18:38:16.563Z,14.76
2022-10-14T18:40:45.513Z,14.71
2022-10-14T18:43:14.634Z,14.63
2022-10-14T18:45:46.469Z,14.55
2022-10-14T18:48:23.013Z,14.48
2022-10-14T18:51:02.865Z,14.43
2022-10-14T18:53:33.903Z,14.36
2022-10-14T18:56:10.359Z,14.27
2022-10-14T18:58:53.691Z,14.15
2022-10-14T19:01:23.272Z,14.07
2022-10-14T19:03:53.870Z,13.98
2022-10-14T19:06:34.058Z,13.92
2022-10-14T19:09:04.673Z,13.87
2022-10-14T19:11:42.441Z,13.85
2022-10-14T19:14:15.684Z,13.80
2022-10-14T19:16:53.913Z,13.73
2022-10-14T19:19:23.237Z,13.67
2022-10-14T19:21:58.882Z,13.61
2022-10-14T19:24:30.818Z,13.57
2022-10-14T19:27:00.644Z,13.54
2022-10-14T19:29:34.832Z,13.52
2022-10-14T19:32:03.899Z,13.51
2022-10-14T19:34:32.808Z,13.49
2022-10-14T19:37:04.652Z,13.44
2022-10-14T19:39:33.803Z,13.30
2022-10-14T19:45:31.414Z,13.23
2022-10-14T19:48:09.465Z,13.17
2022-10-14T19:50:47.085Z,13.11
2022-10-14T19:53:18.881Z,13.06
2022-10-14T19:55:48.048Z,13.02
2022-10-14T19:58:18.425Z,12.97
2022-10-14T20:00:47.489Z,12.93
2022-10-14T20:03:16.371Z,12.88
2022-10-14T20:05:45.267Z,12.86
2022-10-14T20:10:50.247Z,12.79
2022-10-14T20:13:20.916Z,12.72
2022-10-14T20:15:59.242Z,12.67
2022-10-14T20:18:30.038Z,12.63
2022-10-14T20:21:01.839Z,12.60
2022-10-14T20:23:33.850Z,12.56
2022-10-14T20:26:05.299Z,12.52
2022-10-14T20:28:39.282Z,12.37
2022-10-14T20:31:11.830Z,12.29
2022-10-14T20:33:41.076Z,12.24
2022-10-14T20:36:19.061Z,12.22
2022-10-14T20:38:49.571Z,12.17
2022-10-14T20:41:23.786Z,12.15
2022-10-14T20:43:56.571Z,12.13
2022-10-14T20:46:25.627Z,12.12
2022-10-14T20:48:57.333Z,12.10
2022-10-14T20:51:26.945Z,12.08
2022-10-14T20:54:02.569Z,11.99
2022-10-14T20:56:36.783Z,11.97
2022-10-14T20:59:08.440Z,11.97
2022-10-14T21:01:40.228Z,11.99
2022-10-14T21:04:09.287Z,12.00
2022-10-14T21:06:40.809Z,11.93
2022-10-14T21:09:11.971Z,11.87
2022-10-14T21:11:43.364Z,11.85
2022-10-14T21:14:17.013Z,11.85
2022-10-14T21:16:54.620Z,11.88
2022-10-14T21:19:46.652Z,11.90
2022-10-14T21:22:23.398Z,11.87
2022-10-14T21:25:10.504Z,11.82
2022-10-14T21:27:53.164Z,11.78
2022-10-14T21:30:25.289Z,11.75
2022-10-14T21:32:55.449Z,11.72
2022-10-14T21:35:27.309Z,11.69
2022-10-14T21:37:59.091Z,11.65
2022-10-14T21:40:34.505Z,11.60
2022-10-14T21:43:06.090Z,11.55
2022-10-14T21:46:00.250Z,11.50
2022-10-14T21:49:01.090Z,11.43
2022-10-14T21:51:38.259Z,11.41
2022-10-14T21:54:22.196Z,11.39
2022-10-14T21:57:12.291Z,11.34
2022-10-14T21:59:51.388Z,11.29
2022-10-14T22:02:29.345Z,11.25
2022-10-14T22:05:08.630Z,11.21
2022-10-14T22:07:56.518Z,11.17
2022-10-14T22:10:49.390Z,11.14
2022-10-14T22:13:57.863Z,11.09
2022-10-14T22:16:34.074Z,11.07
2022-10-14T22:19:19.918Z,11.06
2022-10-14T22:21:57.841Z,11.04
2022-10-14T22:24:40.849Z,11.05
2022-10-14T22:27:22.194Z,11.03
2022-10-14T22:30:08.877Z,11.02
2022-10-14T22:32:51.791Z,11.01
2022-10-14T22:35:31.797Z,10.98
2022-10-14T22:38:10.822Z,10.87
2022-10-14T22:40:50.527Z,10.84
2022-10-14T22:43:35.067Z,10.84
2022-10-14T22:46:29.019Z,10.85
2022-10-14T22:49:09.228Z,10.85
2022-10-14T22:51:45.422Z,10.84
2022-10-14T22:54:19.588Z,10.85
2022-10-14T22:56:49.279Z,10.89
2022-10-14T22:59:46.175Z,10.92
2022-10-14T23:02:23.044Z,10.94
2022-10-14T23:04:57.088Z,11.00
2022-10-14T23:07:29.607Z,11.05
2022-10-14T23:10:15.151Z,11.09
2022-10-14T23:12:59.531Z,11.09
2022-10-14T23:15:37.282Z,11.10
2022-10-14T23:18:16.028Z,11.16
2022-10-14T23:21:01.382Z,11.17
2022-10-14T23:23:58.527Z,11.19
2022-10-14T23:26:33.361Z,11.23
2022-10-14T23:29:16.816Z,11.27
2022-10-14T23:31:54.483Z,11.25
2022-10-14T23:34:37.294Z,11.26
2022-10-14T23:37:17.148Z,11.24
2022-10-14T23:39:46.488Z,11.17
2022-10-14T23:42:26.551Z,11.11
2022-10-14T23:45:02.958Z,11.09
2022-10-14T23:47:33.080Z,11.07
2022-10-14T23:50:06.462Z,11.06
2022-10-14T23:52:35.329Z,11.03
2022-10-14T23:55:09.723Z,10.92
2022-10-14T23:57:38.594Z,10.90
